Time;durP1;ratioP1;P1;durP2;ratioP2;P2;SDS_P1;SDS_P2;PMS_P1;PMS_P2;Temp;Humidity;BMP_temperature;BMP_pressure;BME280_temperature;BME280_humidity;BME280_pressure;Samples;Min_cycle;Max_cycle;Signal;HPM_P1;HPM_P2
2022/03/13 00:00:47;;;;;;;33.17;12.95;;;;;;;-2.35;37.91;94818.63;4965152;28;20134;-75
2022/03/13 00:03:14;;;;;;;18.38;8.80;;;;;;;-2.88;38.08;94743.34;4974497;28;20042;-76
2022/03/13 00:05:42;;;;;;;14.80;5.97;;;;;;;-2.45;38.22;94821.66;4961137;28;20446;-74
2022/03/13 00:08:25;;;;;;;7.10;4.70;;;;;;;-2.52;38.18;94820.09;4959109;28;20055;-75
2022/03/13 00:11:07;;;;;;;10.30;4.63;;;;;;;-2.50;38.12;94828.50;4961663;28;20451;-74
2022/03/13 00:13:39;;;;;;;42.53;17.42;;;;;;;-2.47;38.07;94828.09;4968504;28;20035;-75
2022/03/13 00:16:08;;;;;;;26.98;13.38;;;;;;;-2.61;38.17;94823.94;4953666;28;20038;-75
2022/03/13 00:18:46;;;;;;;7.38;3.83;;;;;;;-2.60;38.22;94813.31;4962846;28;20038;-75
2022/03/13 00:21:12;;;;;;;25.90;11.90;;;;;;;-2.63;38.13;94792.09;4949785;28;20097;-74
2022/03/13 00:23:38;;;;;;;37.35;15.07;;;;;;;-2.60;37.94;94804.72;4962255;28;20241;-75
2022/03/13 00:26:04;;;;;;;14.88;6.40;;;;;;;-2.60;38.12;94822.94;4954218;28;20455;-74
2022/03/13 00:28:30;;;;;;;6.95;4.45;;;;;;;-3.09;38.41;94743.63;4960612;28;20125;-74
2022/03/13 00:30:56;;;;;;;25.15;11.10;;;;;;;-3.03;37.99;94742.00;4957960;28;20046;-75
2022/03/13 00:33:22;;;;;;;17.27;6.05;;;;;;;-2.76;38.24;94790.34;4960783;28;20449;-75
2022/03/13 00:35:49;;;;;;;36.22;14.40;;;;;;;-2.43;37.75;94818.84;4961769;28;20041;-75
2022/03/13 00:38:14;;;;;;;28.33;14.23;;;;;;;-2.79;38.12;94798.56;4963279;28;20027;-75
2022/03/13 00:40:40;;;;;;;18.65;9.02;;;;;;;-2.68;38.24;94817.97;4959519;28;20455;-74
2022/03/13 00:43:07;;;;;;;16.45;8.65;;;;;;;-2.85;38.19;94820.22;4960924;28;20035;-75
2022/03/13 00:45:33;;;;;;;16.17;6.57;;;;;;;-3.10;38.01;94796.66;4953641;28;20408;-72
2022/03/13 00:47:59;;;;;;;13.85;5.55;;;;;;;-3.20;39.04;94806.69;4960429;28;20046;-72
2022/03/13 00:50:25;;;;;;;9.90;5.28;;;;;;;-3.27;39.14;94795.53;4957643;28;20033;-72
2022/03/13 00:52:51;;;;;;;6.90;3.92;;;;;;;-3.40;39.28;94795.53;4968496;28;20450;-75
2022/03/13 00:55:17;;;;;;;20.77;8.25;;;;;;;-3.18;39.13;94802.91;4951722;28;20034;-73
2022/03/13 00:57:43;;;;;;;5.00;3.92;;;;;;;-3.34;39.28;94785.13;4970071;28;20046;-75
2022/03/13 01:00:13;;;;;;;9.40;5.78;;;;;;;-3.32;38.92;94785.72;4957560;28;20038;-75
2022/03/13 01:02:39;;;;;;;8.68;5.03;;;;;;;-3.15;38.74;94793.88;4963296;28;20141;-75
2022/03/13 01:05:07;;;;;;;6.78;3.97;;;;;;;-3.20;38.69;94788.50;4966280;28;20031;-75
2022/03/13 01:07:33;;;;;;;8.77;4.65;;;;;;;-3.21;38.61;94763.47;4958890;28;20042;-75
2022/03/13 01:09:58;;;;;;;9.77;4.22;;;;;;;-3.00;38.71;94794.44;4965767;28;20093;-75
2022/03/13 01:12:23;;;;;;;10.00;4.93;;;;;;;-3.23;38.26;94765.47;4961144;28;20588;-74
2022/03/13 01:14:49;;;;;;;8.80;4.10;;;;;;;-2.95;38.33;94789.41;4960897;28;20034;-76
2022/03/13 01:17:19;;;;;;;7.10;3.60;;;;;;;-3.06;38.50;94774.44;4960528;28;20035;-73
2022/03/13 01:19:44;;;;;;;11.93;5.68;;;;;;;-3.13;38.40;94765.84;4959640;28;20575;-74
2022/03/13 01:22:12;;;;;;;12.18;6.20;;;;;;;-3.30;38.59;94769.91;4961738;28;20050;-74
2022/03/13 01:24:43;;;;;;;13.48;6.82;;;;;;;-3.18;38.46;94763.88;4959789;28;20062;-76
2022/03/13 01:27:09;;;;;;;7.50;5.32;;;;;;;-3.20;38.75;94754.66;4959589;28;20046;-74
2022/03/13 01:29:34;;;;;;;7.10;4.30;;;;;;;-3.16;38.85;94755.84;4959512;28;20097;-74
2022/03/13 01:32:01;;;;;;;4.45;3.05;;;;;;;-3.15;38.91;94757.44;4962073;28;20019;-75
2022/03/13 01:34:41;;;;;;;6.22;3.75;;;;;;;-3.14;38.89;94753.84;4958039;28;20058;-75
2022/03/13 01:37:18;;;;;;;5.70;4.05;;;;;;;-3.18;38.78;94742.25;4966583;28;20081;-75
2022/03/13 01:39:48;;;;;;;4.07;3.38;;;;;;;-3.14;38.77;94752.03;4961003;28;20554;-74
2022/03/13 01:42:14;;;;;;;5.88;3.88;;;;;;;-3.07;38.90;94746.81;4981058;28;20041;-76
2022/03/13 01:44:39;;;;;;;8.18;4.05;;;;;;;-3.00;38.62;94754.59;4960354;28;20117;-76
2022/03/13 01:47:05;;;;;;;13.70;4.90;;;;;;;-3.15;38.49;94736.63;4958775;28;20472;-75
2022/03/13 01:49:31;;;;;;;4.60;3.30;;;;;;;-3.21;38.62;94733.03;4966264;28;20453;-76
2022/03/13 01:51:57;;;;;;;5.72;3.45;;;;;;;-3.18;38.79;94748.25;4960757;28;20324;-75
2022/03/13 01:54:23;;;;;;;6.25;3.88;;;;;;;-3.14;38.61;94754.66;4960251;28;20639;-75
2022/03/13 01:56:49;;;;;;;6.18;3.80;;;;;;;-3.32;38.75;94725.09;4966461;28;20050;-74
2022/03/13 01:59:15;;;;;;;11.05;4.10;;;;;;;-3.23;38.80;94727.25;4964864;28;20057;-74
2022/03/13 02:01:42;;;;;;;6.53;3.80;;;;;;;-3.15;38.86;94771.25;4969496;28;20087;-76
2022/03/13 02:04:08;;;;;;;8.38;4.22;;;;;;;-3.21;38.77;94779.88;4968058;28;20045;-75
2022/03/13 02:06:33;;;;;;;9.07;4.38;;;;;;;-3.34;38.92;94753.09;4986300;28;20136;-75
2022/03/13 02:08:59;;;;;;;11.65;4.15;;;;;;;-3.13;38.97;94771.06;4964171;28;20472;-76
2022/03/13 02:11:37;;;;;;;7.35;4.25;;;;;;;-3.26;39.04;94750.25;4963362;28;20074;-74
2022/03/13 02:14:03;;;;;;;9.27;4.45;;;;;;;-3.29;38.96;94777.50;4970612;28;20219;-76
2022/03/13 02:16:29;;;;;;;10.32;5.45;;;;;;;-3.30;39.05;94762.91;4958162;28;20773;-75
2022/03/13 02:18:58;;;;;;;9.02;4.88;;;;;;;-3.26;39.06;94764.06;4965234;28;20100;-74
2022/03/13 02:21:30;;;;;;;9.98;5.68;;;;;;;-3.45;39.24;94741.50;4972326;28;20047;-74
2022/03/13 02:24:07;;;;;;;7.10;5.13;;;;;;;-3.17;39.16;94769.88;4975810;28;20042;-71
2022/03/13 02:26:33;;;;;;;10.18;5.35;;;;;;;-3.16;39.01;94755.84;4964703;28;20053;-74
2022/03/13 02:28:58;;;;;;;12.57;7.25;;;;;;;-3.51;39.23;94738.94;4973697;28;20105;-75
2022/03/13 02:31:36;;;;;;;10.05;6.60;;;;;;;-3.34;39.34;94758.31;4961970;28;20468;-76
2022/03/13 02:34:04;;;;;;;10.80;5.32;;;;;;;-3.38;39.22;94746.72;4958801;28;20041;-74
2022/03/13 02:36:34;;;;;;;12.48;6.95;;;;;;;-3.29;39.41;94776.69;4979403;28;20066;-74
2022/03/13 02:39:01;;;;;;;12.07;7.35;;;;;;;-3.41;39.25;94767.91;4960837;28;20035;-75
2022/03/13 02:41:26;;;;;;;9.77;6.13;;;;;;;-3.45;39.16;94740.72;4966606;28;20019;-75
2022/03/13 02:43:56;;;;;;;10.00;5.63;;;;;;;-3.46;39.50;94780.75;4975361;28;20745;-74
2022/03/13 02:46:52;;;;;;;10.80;5.95;;;;;;;-3.37;39.55;94769.94;4965117;28;20062;-75
2022/03/13 02:49:20;;;;;;;9.63;4.30;;;;;;;-3.42;39.55;94766.34;4973840;28;20508;-75
2022/03/13 02:51:49;;;;;;;9.82;5.22;;;;;;;-3.40;39.51;94774.72;4975831;28;20062;-75
2022/03/13 02:54:15;;;;;;;9.00;4.70;;;;;;;-3.36;39.40;94781.09;4961259;28;20046;-75
2022/03/13 02:56:41;;;;;;;6.90;4.43;;;;;;;-3.43;39.39;94777.72;4966596;28;20034;-75
2022/03/13 02:59:08;;;;;;;9.38;5.85;;;;;;;-3.58;39.19;94757.16;4970348;28;20092;-76
2022/03/13 03:01:37;;;;;;;8.15;4.53;;;;;;;-3.71;39.53;94737.16;4980019;28;20458;-75
2022/03/13 03:04:02;;;;;;;10.18;5.80;;;;;;;-3.61;39.67;94752.38;4967343;28;20030;-74
2022/03/13 03:06:29;;;;;;;7.40;5.43;;;;;;;-3.42;39.53;94766.34;4964641;28;20528;-74
2022/03/13 03:08:55;;;;;;;6.38;3.90;;;;;;;-3.56;39.57;94750.72;4965838;28;20497;-74
2022/03/13 03:11:21;;;;;;;10.38;5.72;;;;;;;-3.57;39.69;94754.34;4960353;28;20057;-76
2022/03/13 03:13:47;;;;;;;6.32;4.45;;;;;;;-3.57;39.72;94762.16;4970519;28;20540;-75
2022/03/13 03:16:13;;;;;;;7.65;5.47;;;;;;;-3.43;39.67;94762.13;4965919;28;20046;-74
2022/03/13 03:18:38;;;;;;;7.97;4.63;;;;;;;-3.59;39.73;94751.16;4964559;28;20054;-75
2022/03/13 03:21:04;;;;;;;10.40;5.45;;;;;;;-3.42;39.48;94753.34;4961562;28;20038;-73
2022/03/13 03:23:29;;;;;;;9.18;5.63;;;;;;;-3.60;39.70;94754.75;4969779;28;20444;-75
2022/03/13 03:25:55;;;;;;;10.93;6.18;;;;;;;-3.77;39.66;94716.38;4962619;28;20098;-75
2022/03/13 03:28:21;;;;;;;11.35;5.35;;;;;;;-3.78;39.91;94728.59;4961301;28;20123;-74
2022/03/13 03:30:47;;;;;;;8.85;5.43;;;;;;;-3.77;39.97;94747.59;4977802;28;20043;-75
2022/03/13 03:33:12;;;;;;;12.48;6.60;;;;;;;-3.61;39.87;94750.53;4964845;28;20443;-74
2022/03/13 03:35:40;;;;;;;9.45;5.60;;;;;;;-3.65;39.78;94741.56;4956730;28;20051;-72
2022/03/13 03:38:06;;;;;;;10.82;5.95;;;;;;;-3.69;39.94;94737.75;4982791;28;20030;-75
2022/03/13 03:40:33;;;;;;;8.95;4.82;;;;;;;-3.67;39.93;94743.56;4960513;28;20034;-75
2022/03/13 03:43:00;;;;;;;14.35;5.82;;;;;;;-3.73;40.23;94733.97;4967656;28;20039;-75
2022/03/13 03:45:26;;;;;;;10.00;6.38;;;;;;;-3.68;40.15;94726.38;4959596;28;20511;-75
2022/03/13 03:47:52;;;;;;;8.93;5.07;;;;;;;-3.49;39.95;94740.31;4961983;28;20654;-76
2022/03/13 03:50:18;;;;;;;9.25;5.35;;;;;;;-4.45;39.90;94591.97;4968164;28;20547;-75
2022/03/13 03:52:46;;;;;;;10.07;5.72;;;;;;;-3.64;40.26;94737.97;4955354;28;20109;-75
2022/03/13 03:55:14;;;;;;;13.40;5.78;;;;;;;-3.53;40.07;94733.13;4965885;28;20639;-74
2022/03/13 03:57:39;;;;;;;12.05;5.75;;;;;;;-3.59;39.73;94721.75;4956744;28;20839;-75
2022/03/13 04:00:06;;;;;;;12.10;6.35;;;;;;;-3.64;39.97;94717.16;4975360;28;20343;-75
2022/03/13 04:02:32;;;;;;;10.45;5.25;;;;;;;-3.53;39.92;94730.53;4946616;28;20057;-75
2022/03/13 04:04:58;;;;;;;9.25;5.25;;;;;;;-3.40;40.23;94741.69;4971294;28;20042;-76
2022/03/13 04:07:23;;;;;;;8.18;5.15;;;;;;;-3.86;40.56;94666.41;4961020;28;20608;-76
2022/03/13 04:09:49;;;;;;;8.00;5.63;;;;;;;-3.36;40.62;94742.88;4966977;28;20804;-76
2022/03/13 04:12:14;;;;;;;10.45;5.53;;;;;;;-3.23;40.50;94734.25;4960493;28;20464;-75
2022/03/13 04:14:40;;;;;;;9.50;6.05;;;;;;;-3.00;40.41;94744.97;4955200;28;20077;-76
2022/03/13 04:17:06;;;;;;;13.13;6.63;;;;;;;-3.20;40.94;94731.25;4963488;28;20547;-76
2022/03/13 04:19:31;;;;;;;13.70;8.20;;;;;;;-3.27;41.25;94730.47;4959835;28;20038;-75
2022/03/13 04:21:57;;;;;;;13.93;8.45;;;;;;;-3.29;41.71;94733.28;4968462;28;20042;-75
2022/03/13 04:24:23;;;;;;;18.13;8.05;;;;;;;-3.29;41.96;94729.88;4952412;28;20475;-76
2022/03/13 04:26:49;;;;;;;16.45;6.65;;;;;;;-3.40;41.87;94699.28;4963294;28;20034;-75
2022/03/13 04:29:18;;;;;;;15.73;7.95;;;;;;;-3.21;41.97;94706.22;4962440;28;20025;-73
2022/03/13 04:31:46;;;;;;;14.68;7.32;;;;;;;-2.98;41.57;94716.97;4958938;28;20113;-74
2022/03/13 04:34:11;;;;;;;10.30;6.75;;;;;;;-2.98;41.48;94701.34;4961993;28;20042;-73
2022/03/13 04:36:38;;;;;;;11.00;5.55;;;;;;;-2.91;41.75;94716.91;4955578;28;20061;-75
2022/03/13 04:39:04;;;;;;;12.48;6.47;;;;;;;-2.97;41.64;94717.72;4958107;28;20027;-75
2022/03/13 04:41:30;;;;;;;8.07;6.05;;;;;;;-2.98;41.87;94722.16;4968212;28;20548;-75
2022/03/13 04:43:56;;;;;;;17.38;7.55;;;;;;;-2.83;41.90;94730.47;4960970;28;20088;-75
2022/03/13 04:46:21;;;;;;;17.77;8.68;;;;;;;-3.19;41.54;94647.78;4965877;28;20041;-74
2022/03/13 04:48:47;;;;;;;17.40;8.45;;;;;;;-2.67;41.43;94728.41;4965586;28;20145;-74
2022/03/13 04:51:13;;;;;;;17.85;9.35;;;;;;;-2.67;41.50;94728.41;4965896;28;20318;-75
2022/03/13 04:53:39;;;;;;;20.88;9.63;;;;;;;-2.63;41.61;94737.41;4959070;28;20092;-75
2022/03/13 04:56:05;;;;;;;21.77;9.02;;;;;;;-2.71;41.68;94715.81;4970970;28;20509;-75
2022/03/13 04:58:31;;;;;;;19.17;9.75;;;;;;;-2.57;41.75;94723.53;4957355;28;20074;-76
2022/03/13 05:00:59;;;;;;;18.95;10.70;;;;;;;-2.44;41.50;94718.28;4963931;28;20042;-74
2022/03/13 05:03:27;;;;;;;20.33;11.27;;;;;;;-2.91;41.83;94649.22;4965692;28;20049;-75
2022/03/13 05:05:53;;;;;;;22.73;12.52;;;;;;;-2.49;42.22;94720.72;4965192;28;20050;-75
2022/03/13 05:08:19;;;;;;;25.23;12.85;;;;;;;-2.67;41.94;94702.34;4965601;28;20568;-76
2022/03/13 05:10:46;;;;;;;25.58;12.93;;;;;;;-2.64;41.90;94720.19;4963487;28;20088;-75
2022/03/13 05:13:14;;;;;;;23.85;11.95;;;;;;;-2.48;41.88;94730.91;4963754;28;20049;-75
2022/03/13 05:15:41;;;;;;;24.85;10.50;;;;;;;-2.66;42.24;94698.75;4968538;28;20046;-74
2022/03/13 05:18:07;;;;;;;23.60;11.68;;;;;;;-2.33;41.86;94714.97;4966342;28;20053;-75
2022/03/13 05:20:34;;;;;;;23.42;11.95;;;;;;;-2.51;41.98;94709.69;4963942;28;20559;-75
2022/03/13 05:23:00;;;;;;;20.52;12.18;;;;;;;-2.57;42.12;94708.72;4962372;28;20488;-73
2022/03/13 05:25:28;;;;;;;30.33;13.30;;;;;;;-2.97;42.66;94730.75;4964980;28;20045;-74
2022/03/13 05:27:53;;;;;;;42.75;18.80;;;;;;;-3.41;43.83;94715.88;4964006;28;20157;-75
2022/03/13 05:30:20;;;;;;;27.27;17.77;;;;;;;-2.86;43.38;94745.72;4963289;28;20600;-75
2022/03/13 05:32:46;;;;;;;29.40;14.23;;;;;;;-2.67;43.13;94717.97;4964925;28;20631;-75
2022/03/13 05:35:12;;;;;;;41.20;16.50;;;;;;;-2.41;42.21;94734.28;4960512;28;20038;-72
2022/03/13 05:37:38;;;;;;;29.80;14.43;;;;;;;-2.64;42.32;94717.59;4962125;28;20322;-75
2022/03/13 05:40:05;;;;;;;23.63;12.27;;;;;;;-2.86;42.88;94741.31;4966853;28;20042;-75
2022/03/13 05:42:30;;;;;;;22.73;12.57;;;;;;;-3.07;43.28;94731.19;4959923;28;20637;-75
2022/03/13 05:44:56;;;;;;;31.98;14.75;;;;;;;-3.02;42.95;94736.56;4958823;28;20042;-74
2022/03/13 05:47:25;;;;;;;25.85;14.93;;;;;;;-3.17;43.59;94730.84;4978004;28;20101;-75
2022/03/13 05:49:51;;;;;;;27.98;15.48;;;;;;;-3.56;44.17;94750.72;4960527;28;20576;-76
2022/03/13 05:52:16;;;;;;;23.30;13.68;;;;;;;-3.71;44.78;94747.56;4962361;28;20031;-76
2022/03/13 05:54:42;;;;;;;39.58;17.63;;;;;;;-3.49;44.85;94724.72;4954932;28;20034;-74
2022/03/13 05:57:10;;;;;;;54.38;22.13;;;;;;;-3.95;46.13;94755.97;4962348;28;20118;-77
2022/03/13 05:59:37;;;;;;;44.55;19.35;;;;;;;-4.05;46.50;94756.38;4953947;28;20039;-74
2022/03/13 06:02:07;;;;;;;37.63;17.15;;;;;;;-4.25;47.09;94737.41;4961473;28;20022;-72
2022/03/13 06:04:34;;;;;;;35.50;15.07;;;;;;;-4.28;46.73;94755.97;4968776;28;20038;-74
2022/03/13 06:07:00;;;;;;;35.05;14.73;;;;;;;-3.78;46.38;94746.78;4968326;28;20481;-75
2022/03/13 06:09:25;;;;;;;57.70;15.85;;;;;;;-4.08;46.54;94751.59;4958458;28;20045;-75
2022/03/13 06:11:51;;;;;;;28.33;14.43;;;;;;;-3.97;46.63;94770.97;4956382;28;20037;-76
2022/03/13 06:14:17;;;;;;;34.70;13.80;;;;;;;-3.57;46.19;94775.16;4960278;28;20515;-76
2022/03/13 06:16:42;;;;;;;46.60;18.45;;;;;;;-3.91;45.97;94746.00;4964630;28;20068;-76
2022/03/13 06:19:08;;;;;;;32.75;17.23;;;;;;;-3.54;45.50;94757.53;4955474;28;20043;-77
2022/03/13 06:21:33;;;;;;;40.95;16.40;;;;;;;-3.55;45.14;94746.34;4965550;28;20849;-76
2022/03/13 06:23:59;;;;;;;34.78;18.50;;;;;;;-3.61;45.52;94773.94;4967835;28;20094;-75
2022/03/13 06:26:24;;;;;;;35.55;15.95;;;;;;;-3.43;44.81;94770.72;4957011;28;20466;-75
2022/03/13 06:28:49;;;;;;;28.73;14.70;;;;;;;-2.70;43.78;94772.09;4966410;28;20101;-75
2022/03/13 06:31:16;;;;;;;33.25;13.35;;;;;;;-2.61;43.35;94743.19;4975043;28;20515;-75
2022/03/13 06:33:41;;;;;;;26.92;15.30;;;;;;;-2.47;43.39;94765.56;4966977;28;20068;-77
2022/03/13 06:36:07;;;;;;;39.65;17.38;;;;;;;-3.20;44.07;94781.47;4989799;28;20268;-75
2022/03/13 06:38:32;;;;;;;28.52;14.85;;;;;;;-3.18;44.85;94778.69;4960707;28;20026;-75
2022/03/13 06:40:58;;;;;;;35.00;14.20;;;;;;;-3.31;44.74;94773.50;4966393;28;20456;-76
2022/03/13 06:43:23;;;;;;;36.72;15.48;;;;;;;-2.67;43.21;94776.06;4963763;28;20457;-76
2022/03/13 06:45:49;;;;;;;33.88;17.13;;;;;;;-2.50;43.33;94779.00;4975560;28;20051;-73
2022/03/13 06:48:15;;;;;;;30.30;14.23;;;;;;;-2.19;41.75;94760.00;4962736;28;20084;-74
2022/03/13 06:50:41;;;;;;;24.38;14.60;;;;;;;-2.39;41.31;94767.94;4960463;28;20089;-77
2022/03/13 06:53:08;;;;;;;30.13;13.18;;;;;;;-3.16;43.34;94787.06;4962801;28;20121;-76
2022/03/13 06:55:34;;;;;;;21.33;12.52;;;;;;;-2.78;42.13;94764.50;4963573;28;20046;-75
2022/03/13 06:57:59;;;;;;;32.42;15.00;;;;;;;-2.02;41.46;94780.13;4961667;28;20043;-76
2022/03/13 07:00:25;;;;;;;28.25;13.95;;;;;;;-1.88;41.59;94757.34;4957014;28;20329;-75
2022/03/13 07:02:50;;;;;;;28.48;13.82;;;;;;;-1.89;40.44;94722.66;4966189;28;20073;-76
2022/03/13 07:05:16;;;;;;;33.22;15.25;;;;;;;-1.84;41.53;94748.88;4964322;28;20370;-76
2022/03/13 07:07:42;;;;;;;23.55;13.93;;;;;;;-2.31;42.16;94754.66;4957567;28;20043;-75
2022/03/13 07:10:11;;;;;;;26.73;14.65;;;;;;;-2.78;42.84;94740.31;4963002;28;20494;-76
2022/03/13 07:12:41;;;;;;;24.60;14.43;;;;;;;-2.78;42.80;94754.09;4965371;28;20038;-74
2022/03/13 07:15:10;;;;;;;33.22;16.15;;;;;;;-2.93;43.11;94764.00;4964567;28;20070;-75
2022/03/13 07:17:36;;;;;;;27.58;14.48;;;;;;;-3.14;43.99;94735.63;4964982;28;20043;-75
2022/03/13 07:20:02;;;;;;;28.92;15.40;;;;;;;-2.35;42.95;94740.44;4967174;28;20614;-73
2022/03/13 07:22:27;;;;;;;31.15;15.48;;;;;;;-2.35;41.58;94701.38;4958564;28;20035;-73
2022/03/13 07:24:52;;;;;;;38.67;14.63;;;;;;;-1.51;41.00;94751.19;4966930;28;20485;-72
2022/03/13 07:27:18;;;;;;;28.80;14.15;;;;;;;-1.34;39.65;94717.50;4967289;28;20076;-74
2022/03/13 07:29:43;;;;;;;26.85;14.25;;;;;;;-1.52;40.35;94728.75;4963851;28;20143;-74
2022/03/13 07:32:09;;;;;;;27.50;14.23;;;;;;;-1.26;39.59;94732.88;4963629;28;20042;-76
2022/03/13 07:34:34;;;;;;;38.85;15.45;;;;;;;-1.61;40.82;94740.47;4996470;28;20118;-76
2022/03/13 07:36:59;;;;;;;28.73;15.75;;;;;;;-1.81;41.13;94760.72;4966194;28;20050;-75
2022/03/13 07:39:25;;;;;;;35.67;14.27;;;;;;;-1.61;41.93;94770.97;4966958;28;20038;-76
2022/03/13 07:41:55;;;;;;;28.05;14.90;;;;;;;-1.67;41.95;94740.53;4968829;28;20161;-76
2022/03/13 07:44:22;;;;;;;25.70;13.98;;;;;;;-1.13;40.65;94732.75;4957899;28;20031;-75
2022/03/13 07:46:47;;;;;;;28.75;16.73;;;;;;;-1.22;41.14;94769.81;4963953;28;20469;-73
2022/03/13 07:49:13;;;;;;;29.33;13.32;;;;;;;-1.25;41.09;94759.78;4972219;28;20053;-75
2022/03/13 07:51:38;;;;;;;27.45;14.07;;;;;;;-1.82;41.93;94706.94;4961689;28;20042;-75
2022/03/13 07:54:03;;;;;;;31.83;14.00;;;;;;;-2.20;42.77;94756.59;4960998;28;20328;-74
2022/03/13 07:56:29;;;;;;;27.83;14.20;;;;;;;-2.24;42.22;94744.97;4956862;28;20096;-75
2022/03/13 07:58:55;;;;;;;29.42;15.15;;;;;;;-1.74;41.77;94758.84;4964962;28;20452;-74
2022/03/13 08:01:21;;;;;;;34.88;17.33;;;;;;;-1.06;40.68;94749.13;4958719;28;20059;-73
2022/03/13 08:03:47;;;;;;;26.42;14.40;;;;;;;-1.61;41.16;94711.78;4964235;28;20043;-75
2022/03/13 08:06:13;;;;;;;34.75;15.27;;;;;;;-0.85;39.97;94760.16;4962185;28;20049;-75
2022/03/13 08:08:38;;;;;;;23.88;14.57;;;;;;;-0.71;39.56;94751.94;4964364;28;20058;-75
2022/03/13 08:11:04;;;;;;;24.90;14.32;;;;;;;-1.36;40.14;94688.22;4964566;28;20117;-74
2022/03/13 08:13:30;;;;;;;29.17;15.88;;;;;;;-1.48;40.96;94718.66;4961173;28;20038;-75
2022/03/13 08:15:55;;;;;;;35.08;15.20;;;;;;;-1.30;40.96;94715.25;4961929;28;20581;-74
2022/03/13 08:18:20;;;;;;;29.60;16.55;;;;;;;-1.42;40.86;94731.66;4964509;28;20633;-75
2022/03/13 08:20:46;;;;;;;30.63;14.95;;;;;;;-1.49;40.83;94706.63;4960253;28;20031;-74
2022/03/13 08:23:12;;;;;;;34.95;15.70;;;;;;;-1.07;40.03;94684.88;4966043;28;20121;-75
2022/03/13 08:25:37;;;;;;;33.90;17.50;;;;;;;-0.85;38.98;94702.69;4983213;28;20131;-74
2022/03/13 08:28:03;;;;;;;33.45;16.65;;;;;;;-0.34;38.70;94717.88;4964259;28;20118;-73
2022/03/13 08:30:28;;;;;;;31.27;16.45;;;;;;;-0.60;39.87;94716.44;4958897;28;20482;-74
2022/03/13 08:32:54;;;;;;;35.22;14.68;;;;;;;-1.05;39.89;94698.50;4964352;28;20080;-74
2022/03/13 08:35:20;;;;;;;22.00;13.13;;;;;;;-0.90;40.46;94733.88;4965105;28;20053;-73
2022/03/13 08:37:45;;;;;;;31.88;16.92;;;;;;;-0.64;41.20;94731.75;4964499;28;20480;-75
2022/03/13 08:40:12;;;;;;;29.52;15.65;;;;;;;-0.66;41.24;94712.09;4962092;28;20112;-74
2022/03/13 08:42:38;;;;;;;31.80;16.35;;;;;;;-0.29;39.44;94708.38;4960147;28;20038;-74
2022/03/13 08:45:05;;;;;;;40.35;17.77;;;;;;;0.32;38.16;94738.56;4961946;28;20600;-75
2022/03/13 08:47:30;;;;;;;28.80;15.15;;;;;;;0.55;37.42;94735.16;4959627;28;20039;-74
2022/03/13 08:49:56;;;;;;;23.38;14.70;;;;;;;0.67;36.39;94713.19;4961612;28;20022;-74
2022/03/13 08:52:22;;;;;;;23.35;14.82;;;;;;;0.38;36.30;94721.19;4959264;28;20049;-74
2022/03/13 08:54:48;;;;;;;25.70;15.10;;;;;;;-0.35;38.25;94717.09;4955808;28;20041;-74
2022/03/13 08:57:14;;;;;;;39.05;17.10;;;;;;;0.12;37.99;94685.78;4963131;28;20509;-74
2022/03/13 08:59:39;;;;;;;31.25;15.00;;;;;;;0.14;37.16;94707.28;4958179;28;20397;-74
2022/03/13 09:02:05;;;;;;;29.55;15.40;;;;;;;0.09;37.38;94686.25;4961345;28;20618;-74
2022/03/13 09:04:32;;;;;;;36.65;17.70;;;;;;;0.64;37.43;94712.88;4957416;28;20043;-73
2022/03/13 09:06:57;;;;;;;36.25;19.42;;;;;;;0.20;38.20;94709.78;4961111;28;20355;-73
2022/03/13 09:09:24;;;;;;;32.95;15.90;;;;;;;0.05;38.67;94706.03;4959491;28;20030;-75
2022/03/13 09:11:51;;;;;;;31.02;16.15;;;;;;;0.02;38.56;94693.38;4957189;28;20054;-74
2022/03/13 09:14:20;;;;;;;34.58;16.20;;;;;;;0.60;37.67;94707.28;4972207;28;20432;-74
2022/03/13 09:16:45;;;;;;;38.78;15.77;;;;;;;0.32;37.97;94709.78;4962226;28;20146;-74
2022/03/13 09:19:12;;;;;;;34.08;16.48;;;;;;;0.42;38.26;94710.03;4953413;28;20045;-74
2022/03/13 09:21:40;;;;;;;32.97;16.70;;;;;;;1.07;37.76;94701.97;4964827;28;20539;-75
2022/03/13 09:24:09;;;;;;;26.65;15.68;;;;;;;1.14;37.34;94697.38;4958726;28;20420;-73
2022/03/13 09:26:35;;;;;;;33.58;16.67;;;;;;;0.78;37.32;94683.59;4997764;28;24912;-76
2022/03/13 09:29:04;;;;;;;39.85;18.67;;;;;;;1.04;36.42;94684.88;4967264;28;20065;-74
2022/03/13 09:31:29;;;;;;;29.90;16.08;;;;;;;1.61;36.36;94692.78;4962566;28;20046;-75
2022/03/13 09:33:55;;;;;;;28.10;14.98;;;;;;;1.65;35.64;94671.09;4956542;28;20038;-75
2022/03/13 09:36:20;;;;;;;42.65;23.83;;;;;;;0.66;36.82;94672.34;4964754;28;20077;-74
2022/03/13 09:38:46;;;;;;;29.48;18.15;;;;;;;0.05;38.46;94669.41;4961640;28;20043;-74
2022/03/13 09:41:12;;;;;;;35.17;16.13;;;;;;;-0.16;38.49;94675.97;4958313;28;20038;-74
2022/03/13 09:43:38;;;;;;;32.03;16.10;;;;;;;0.46;37.76;94677.13;4977191;28;20615;-77
2022/03/13 09:46:04;;;;;;;31.80;17.73;;;;;;;0.95;36.94;94688.09;4964429;28;20261;-75
2022/03/13 09:48:30;;;;;;;35.05;16.00;;;;;;;0.62;37.31;94688.72;4962902;28;20041;-75
2022/03/13 09:50:56;;;;;;;39.45;19.20;;;;;;;0.21;38.60;94692.25;4960180;28;20154;-73
2022/03/13 09:53:21;;;;;;;32.33;18.13;;;;;;;0.73;38.69;94675.63;4961464;28;20027;-72
2022/03/13 09:55:46;;;;;;;30.80;17.90;;;;;;;1.15;36.99;94683.25;4963682;28;20602;-73
2022/03/13 09:58:12;;;;;;;30.17;16.73;;;;;;;1.07;36.08;94646.97;4965141;28;20465;-73
2022/03/13 10:00:37;;;;;;;31.33;16.90;;;;;;;1.48;35.69;94674.69;4964629;28;21157;-72
2022/03/13 10:03:08;;;;;;;29.05;16.52;;;;;;;1.31;35.55;94645.84;4965508;28;20382;-72
2022/03/13 10:05:42;;;;;;;32.05;16.60;;;;;;;1.88;35.51;94661.50;4971977;28;20054;-72
2022/03/13 10:08:07;;;;;;;40.35;17.05;;;;;;;1.81;35.61;94655.59;4965503;28;20053;-71
2022/03/13 10:11:02;;;;;;;33.72;16.65;;;;;;;2.07;34.84;94650.53;4966568;28;20038;-71
2022/03/13 10:13:46;;;;;;;27.08;16.33;;;;;;;2.22;35.04;94657.84;4966721;28;20496;-74
2022/03/13 10:16:17;;;;;;;31.25;17.42;;;;;;;1.70;36.62;94625.00;4968290;28;20047;-74
2022/03/13 10:18:42;;;;;;;30.48;16.48;;;;;;;1.89;37.51;94652.59;4966943;28;20038;-71
2022/03/13 10:21:11;;;;;;;36.08;17.38;;;;;;;1.61;35.98;94650.81;4970379;28;20409;-73
2022/03/13 10:23:37;;;;;;;34.67;17.05;;;;;;;2.07;36.50;94645.28;4967051;28;20046;-73
2022/03/13 10:26:05;;;;;;;33.53;16.67;;;;;;;2.43;34.53;94617.72;4967088;28;20093;-72
2022/03/13 10:28:37;;;;;;;36.35;16.23;;;;;;;2.22;33.99;94647.34;4967121;28;20039;-71
2022/03/13 10:31:03;;;;;;;36.45;17.73;;;;;;;2.53;34.27;94654.63;4964432;28;20428;-72
2022/03/13 10:33:48;;;;;;;34.78;16.95;;;;;;;2.66;33.33;94642.97;4978235;28;20035;-72
2022/03/13 10:36:14;;;;;;;38.30;17.23;;;;;;;2.05;34.51;94642.13;4958291;28;20077;-73
2022/03/13 10:38:41;;;;;;;35.45;15.63;;;;;;;1.56;34.94;94643.66;4959785;28;20046;-73
2022/03/13 10:41:12;;;;;;;35.10;17.55;;;;;;;1.80;34.96;94606.78;4965195;28;20054;-72
2022/03/13 10:43:55;;;;;;;36.22;16.52;;;;;;;1.53;35.44;94612.66;4962638;28;20051;-73
2022/03/13 10:46:29;;;;;;;38.60;15.55;;;;;;;1.74;36.68;94631.34;4963748;28;20523;-72
2022/03/13 10:48:55;;;;;;;34.40;15.85;;;;;;;1.91;36.06;94632.19;4964144;28;20038;-72
2022/03/13 10:51:34;;;;;;;38.42;16.98;;;;;;;1.83;36.48;94640.41;4962938;28;20045;-72
2022/03/13 10:54:03;;;;;;;31.45;15.40;;;;;;;2.42;36.23;94631.88;4968254;28;20053;-75
2022/03/13 10:56:29;;;;;;;34.95;14.77;;;;;;;1.85;36.46;94578.81;4960540;28;20313;-73
2022/03/13 10:58:54;;;;;;;35.25;15.73;;;;;;;2.37;35.51;94631.00;4969170;28;20488;-73
2022/03/13 11:01:22;;;;;;;26.13;15.23;;;;;;;2.38;35.63;94628.16;4964143;28;20042;-72
2022/03/13 11:03:52;;;;;;;35.20;15.93;;;;;;;2.75;34.64;94623.09;4968613;28;20552;-73
2022/03/13 11:06:19;;;;;;;32.60;15.52;;;;;;;2.29;34.99;94619.09;4965998;28;20460;-72
2022/03/13 11:08:45;;;;;;;26.52;15.23;;;;;;;2.91;34.18;94609.13;4965527;28;20045;-73
2022/03/13 11:11:15;;;;;;;26.05;14.80;;;;;;;2.60;34.18;94596.66;4962121;28;20038;-73
2022/03/13 11:13:42;;;;;;;34.75;14.27;;;;;;;2.63;33.73;94574.38;4953931;28;20050;-73
2022/03/13 11:16:09;;;;;;;32.55;14.13;;;;;;;2.91;34.02;94597.81;4953823;28;20125;-73
2022/03/13 11:18:37;;;;;;;24.98;13.38;;;;;;;3.49;32.78;94589.19;4956205;28;20057;-73
2022/03/13 11:21:06;;;;;;;24.00;11.27;;;;;;;4.01;32.48;94612.25;4961425;28;20141;-72
2022/03/13 11:23:33;;;;;;;21.42;9.05;;;;;;;4.21;30.66;94604.47;4964732;28;20034;-74